createdAt,value
2023-01-17T00:00:00.164Z,74.1
2023-01-17T00:05:00.130Z,75
2023-01-17T00:10:00.175Z,75.9
2023-01-17T00:15:00.137Z,76.7
2023-01-17T00:20:00.179Z,77
2023-01-17T00:25:00.103Z,77.7
2023-01-17T00:30:00.143Z,78.1
2023-01-17T00:35:00.162Z,78.2
2023-01-17T00:40:00.149Z,78.7
2023-01-17T00:45:00.105Z,79.9
2023-01-17T00:50:00.174Z,80.3
2023-01-17T00:55:00.157Z,80.8
2023-01-17T01:00:00.215Z,81
2023-01-17T01:05:00.113Z,81
2023-01-17T01:10:00.167Z,80.9
2023-01-17T01:15:00.156Z,80.9
2023-01-17T01:20:00.160Z,80.8
2023-01-17T01:25:00.147Z,80.2
2023-01-17T01:30:00.196Z,80.6
2023-01-17T01:35:00.143Z,80.7
2023-01-17T01:40:00.135Z,80.8
2023-01-17T01:45:00.128Z,80.8
2023-01-17T01:50:00.137Z,80.7
2023-01-17T01:55:00.135Z,80.9
2023-01-17T02:00:00.154Z,81
2023-01-17T02:05:00.104Z,81.3
2023-01-17T02:10:00.169Z,81.8
2023-01-17T02:15:00.122Z,82.6
2023-01-17T02:20:00.171Z,83.5
2023-01-17T02:25:00.148Z,84.1
2023-01-17T02:30:00.183Z,85
2023-01-17T02:35:00.128Z,85.6
2023-01-17T02:40:00.164Z,85.9
2023-01-17T02:45:00.122Z,85.5
2023-01-17T02:50:00.151Z,85.1
2023-01-17T02:55:00.130Z,84.4
2023-01-17T03:00:00.182Z,84.2
2023-01-17T03:05:00.130Z,83.8
2023-01-17T03:10:00.195Z,83.8
2023-01-17T03:15:00.109Z,83.9
2023-01-17T03:20:00.156Z,84
2023-01-17T03:25:00.133Z,84
2023-01-17T03:30:00.158Z,84.1
2023-01-17T03:35:00.168Z,84.3
2023-01-17T03:40:00.178Z,84.2
2023-01-17T03:45:00.144Z,84.3
2023-01-17T03:50:00.119Z,84.2
2023-01-17T03:55:00.135Z,84.1
2023-01-17T04:00:00.194Z,83.8
2023-01-17T04:05:00.110Z,83.5
2023-01-17T04:10:00.160Z,83.4
2023-01-17T04:15:00.153Z,83.2
2023-01-17T04:20:00.170Z,83.1
2023-01-17T04:25:00.197Z,83
2023-01-17T04:30:00.135Z,82.8
2023-01-17T04:35:00.131Z,82.9
2023-01-17T04:40:00.164Z,82.9
2023-01-17T04:45:00.138Z,82.8
2023-01-17T04:50:00.149Z,82.7
2023-01-17T04:55:00.125Z,82.7
2023-01-17T05:00:00.175Z,82.7
2023-01-17T05:05:00.109Z,82.7
2023-01-17T05:10:00.095Z,82.7
2023-01-17T05:15:00.124Z,82.8
2023-01-17T05:20:00.139Z,82.8
2023-01-17T05:25:00.106Z,82.6
2023-01-17T05:30:00.167Z,82.6
2023-01-17T05:35:00.121Z,82.6
2023-01-17T05:40:00.240Z,82.7
2023-01-17T05:45:00.145Z,82.9
2023-01-17T05:50:00.129Z,82.9
2023-01-17T05:55:00.128Z,81.9
2023-01-17T06:00:00.193Z,82.7
2023-01-17T06:05:01.851Z,82.5
2023-01-17T06:10:00.173Z,82.2
2023-01-17T06:15:00.123Z,82.1
2023-01-17T06:20:00.156Z,82
2023-01-17T06:25:00.128Z,81.9
2023-01-17T06:30:00.171Z,81.7
2023-01-17T06:35:00.118Z,81.8
2023-01-17T06:40:00.165Z,81.7
2023-01-17T06:45:00.128Z,81.6
2023-01-17T06:50:00.163Z,81.4
2023-01-17T06:55:00.107Z,81.2
2023-01-17T07:00:00.178Z,80.9
2023-01-17T07:05:00.179Z,80.4
2023-01-17T07:10:00.144Z,79.8
2023-01-17T07:15:00.144Z,79.7
2023-01-17T07:20:00.176Z,79.2
2023-01-17T07:25:00.120Z,78.9
2023-01-17T07:30:00.150Z,78.5
2023-01-17T07:35:00.113Z,78.3
2023-01-17T07:40:00.181Z,78.1
2023-01-17T07:45:00.140Z,77.7
2023-01-17T07:50:00.145Z,77.2
2023-01-17T07:55:00.147Z,76.9
2023-01-17T08:00:00.267Z,76.8
2023-01-17T08:05:00.140Z,76.6
2023-01-17T08:10:00.129Z,76.4
2023-01-17T08:15:00.144Z,76.2
2023-01-17T08:20:00.161Z,76.1
2023-01-17T08:25:00.163Z,76.1
2023-01-17T08:30:00.143Z,75.9
2023-01-17T08:35:00.139Z,75.4
2023-01-17T08:40:00.167Z,75.9
2023-01-17T08:45:00.119Z,74.4
2023-01-17T08:50:00.144Z,71.8
2023-01-17T08:55:00.130Z,69.9
2023-01-17T09:00:00.213Z,67.3
2023-01-17T09:05:00.125Z,66.6
2023-01-17T09:10:00.231Z,68
2023-01-17T09:15:00.134Z,69.3
2023-01-17T09:20:00.166Z,70
2023-01-17T09:25:00.139Z,70.6
2023-01-17T09:30:00.175Z,70.5
2023-01-17T09:35:00.134Z,69.8
2023-01-17T09:40:00.158Z,69.8
2023-01-17T09:45:00.147Z,70.5
2023-01-17T09:50:00.170Z,70.9
2023-01-17T09:55:00.127Z,71.3
2023-01-17T10:00:03.434Z,70.5
2023-01-17T10:05:00.213Z,69.3
2023-01-17T10:10:00.119Z,69
2023-01-17T10:15:00.140Z,69.5
2023-01-17T10:20:00.212Z,69.7
2023-01-17T10:25:00.170Z,69.6
2023-01-17T10:30:00.175Z,70
2023-01-17T10:35:00.163Z,69.8
2023-01-17T10:40:00.154Z,69.3
2023-01-17T10:45:00.160Z,68.4
2023-01-17T10:50:00.123Z,67.2
2023-01-17T10:55:00.115Z,66.6
2023-01-17T11:00:00.219Z,66
2023-01-17T11:05:00.147Z,65.9
2023-01-17T11:10:00.148Z,65
2023-01-17T11:15:00.126Z,65.2
2023-01-17T11:20:00.150Z,65.2
2023-01-17T11:25:00.160Z,53.2
2023-01-17T11:30:00.161Z,52.5
2023-01-17T11:35:00.125Z,52.2
2023-01-17T11:40:00.173Z,52
2023-01-17T11:45:00.101Z,53.6
2023-01-17T11:50:00.141Z,53.5
2023-01-17T11:55:00.253Z,54
2023-01-17T12:00:00.238Z,52.6
2023-01-17T12:05:00.200Z,54.1
2023-01-17T12:10:00.127Z,54.6
2023-01-17T12:15:00.124Z,53.2
2023-01-17T12:20:00.165Z,52.5
2023-01-17T12:25:00.128Z,51.9
2023-01-17T12:30:00.142Z,51.4
2023-01-17T12:35:00.124Z,50.8
2023-01-17T12:40:00.183Z,50.4
2023-01-17T12:45:00.166Z,50
2023-01-17T12:50:00.156Z,50.4
2023-01-17T12:55:00.153Z,50.7
2023-01-17T13:00:00.147Z,51.9
2023-01-17T13:05:00.126Z,53
2023-01-17T13:10:00.150Z,54.4
2023-01-17T13:15:00.139Z,55
2023-01-17T13:20:00.147Z,56
2023-01-17T13:25:00.133Z,56.4
2023-01-17T13:30:00.134Z,55.9
2023-01-17T13:35:01.575Z,55.5
2023-01-17T13:40:00.168Z,55
2023-01-17T13:45:00.120Z,54.6
2023-01-17T13:50:00.170Z,53.8
2023-01-17T13:55:00.118Z,54.1
2023-01-17T14:00:00.195Z,54.9
2023-01-17T14:05:00.168Z,55.5
2023-01-17T14:10:00.135Z,55.8
2023-01-17T14:15:00.137Z,55.1
2023-01-17T14:20:00.248Z,55
2023-01-17T14:25:00.142Z,55.2
2023-01-17T14:30:00.216Z,55.3
2023-01-17T14:35:00.118Z,54.4
2023-01-17T14:40:00.140Z,53.9
2023-01-17T14:45:00.175Z,53.1
2023-01-17T14:50:00.157Z,53.1
2023-01-17T14:55:00.113Z,53.4
2023-01-17T15:00:00.258Z,53.4
2023-01-17T15:05:00.109Z,53.3
2023-01-17T15:10:00.153Z,53.6
2023-01-17T15:15:00.111Z,53.9
2023-01-17T15:20:00.143Z,53.9
2023-01-17T15:25:00.143Z,54.2
2023-01-17T15:30:00.169Z,53.9
2023-01-17T15:35:00.142Z,53
2023-01-17T15:40:00.167Z,53
2023-01-17T15:45:00.135Z,52.6
2023-01-17T15:50:00.172Z,52.9
2023-01-17T15:55:00.168Z,52.9
2023-01-17T16:00:00.177Z,53.5
2023-01-17T16:05:00.210Z,53.4
2023-01-17T16:10:00.153Z,53.5
2023-01-17T16:15:11.594Z,53.8
2023-01-17T16:20:00.283Z,54.1
2023-01-17T16:25:00.154Z,54.2
2023-01-17T16:30:00.166Z,54.5
2023-01-17T16:35:00.125Z,53.7
2023-01-17T16:40:00.268Z,53.8
2023-01-17T16:45:00.135Z,54.9
2023-01-17T16:50:00.277Z,55.1
2023-01-17T16:55:00.129Z,55.3
2023-01-17T17:00:00.221Z,55.7
2023-01-17T17:05:00.165Z,55.9
2023-01-17T17:10:00.155Z,56.2
2023-01-17T17:15:00.136Z,56.6
2023-01-17T17:20:00.271Z,56.5
2023-01-17T17:25:00.171Z,57.8
2023-01-17T17:30:00.195Z,58.6
2023-01-17T17:35:00.149Z,59.4
2023-01-17T17:40:00.159Z,59.8
2023-01-17T17:45:00.112Z,60
2023-01-17T17:50:00.174Z,60.4
2023-01-17T17:55:00.164Z,61.1
2023-01-17T18:00:00.320Z,62.2
2023-01-17T18:05:00.192Z,62
2023-01-17T18:10:00.130Z,62.4
2023-01-17T18:15:00.122Z,62.8
2023-01-17T18:20:00.148Z,62.5
2023-01-17T18:25:00.115Z,63.8
2023-01-17T18:30:00.158Z,64.4
2023-01-17T18:35:00.129Z,65.7
2023-01-17T18:40:00.165Z,66.2
2023-01-17T18:45:00.149Z,66.4
2023-01-17T18:50:00.159Z,66.9
2023-01-17T18:55:00.135Z,67.4
2023-01-17T19:00:00.473Z,70.3
2023-01-17T19:05:00.119Z,70.9
2023-01-17T19:10:00.156Z,70.5
2023-01-17T19:15:00.140Z,70.2
2023-01-17T19:20:00.162Z,70.1
2023-01-17T19:25:00.129Z,69.5
2023-01-17T19:30:00.310Z,70.3
2023-01-17T19:35:00.139Z,70.1
2023-01-17T19:40:00.162Z,70.2
2023-01-17T19:45:00.139Z,70.4
2023-01-17T19:50:00.128Z,71
2023-01-17T19:55:00.140Z,72.4
2023-01-17T20:00:00.177Z,73.1
2023-01-17T20:05:00.191Z,72.7
2023-01-17T20:10:00.164Z,73
2023-01-17T20:15:00.127Z,73.3
2023-01-17T20:20:00.202Z,74.4
2023-01-17T20:25:00.136Z,75
2023-01-17T20:30:11.027Z,75
2023-01-17T20:35:00.143Z,74.9
2023-01-17T20:40:00.223Z,76.5
2023-01-17T20:45:00.127Z,76.4
2023-01-17T20:50:00.174Z,76.3
2023-01-17T20:55:00.117Z,76.8
2023-01-17T21:00:00.182Z,79.2
2023-01-17T21:05:00.114Z,80.3
2023-01-17T21:10:00.154Z,81.2
2023-01-17T21:15:00.135Z,80.9
2023-01-17T21:20:00.142Z,81.7
2023-01-17T21:25:00.114Z,82
2023-01-17T21:30:00.177Z,82.2
2023-01-17T21:35:00.131Z,82.3
2023-01-17T21:40:00.135Z,82.4
2023-01-17T21:45:00.138Z,82.4
2023-01-17T21:50:00.126Z,82.4
2023-01-17T21:55:00.160Z,82.4
2023-01-17T22:00:00.169Z,82.3
2023-01-17T22:05:00.153Z,82.3
2023-01-17T22:10:00.137Z,82.3
2023-01-17T22:15:00.121Z,82.2
2023-01-17T22:20:00.150Z,82
2023-01-17T22:25:00.150Z,81.9
2023-01-17T22:30:00.172Z,82
2023-01-17T22:35:00.140Z,82
2023-01-17T22:40:00.138Z,82
2023-01-17T22:45:00.125Z,82.1
2023-01-17T22:50:00.138Z,82.1
2023-01-17T22:55:00.227Z,82.2
2023-01-17T23:00:00.212Z,82.2
2023-01-17T23:05:00.128Z,82.2
2023-01-17T23:10:00.129Z,82.1
2023-01-17T23:15:00.134Z,82.1
2023-01-17T23:20:05.135Z,82.2
2023-01-17T23:25:00.120Z,81.9
2023-01-17T23:30:00.135Z,82.3
2023-01-17T23:35:00.127Z,82.2
2023-01-17T23:40:00.131Z,81.6
2023-01-17T23:45:00.151Z,82.2
2023-01-17T23:50:00.163Z,82.3
2023-01-17T23:55:00.113Z,82.5
